»·PEaware :: SWA956 KSJC-KRNO

SWA956 :: KSJC-KRNO

FLIGHT INFORMATION

Flight Status: Arrived
Operator:
Southwest Airlines
More flights by this operator :: More flights under this callsign
Pilot: Herb P. (797)
Aircraft: BOEING 737-300
(B733)
More flights by this aircraft type
Origin: KSJC Mineta San Jose Intl
United States
Destination: KRNO Reno/Tahoe Intl
United States
More flights between these airports :: More routes between these airports
Route: LOUPE4 BMRNG SAC SIER3
File this flight plan on PilotEdge
Remarks:
Altitude:
(Current/Filed)
21,000ft
Speed:
(Current/Filed)
470kts
Departed: 14-Apr-18 09:52 AM
Arrived: 14-Apr-18 10:34 AM
Distance/Time
Traveled:
164nm/0:42
Distance/Time
To Go:
Arrived

Flight Plot

Page will automatically refresh every two minutes.

Flight plan parsing failed; only flown route is shown


Map Options




Map Legend


Flown Route
Filed Route
Departure Airport
Arrival Airport
Navaid (VOR, NDB)
Fix

Horizontal Profiles

Position Reports

Time Latitude Longitude Heading Altitude Ground
Speed
14-Apr-18 09:25 37.365305 -121.925843 48 56ft 0kts
14-Apr-18 09:26 37.365305 -121.925843 48 56ft 0kts
14-Apr-18 09:27 37.365305 -121.925843 48 56ft 0kts
14-Apr-18 09:28 37.365305 -121.925843 48 56ft 0kts
14-Apr-18 09:29 37.365305 -121.925843 48 56ft 0kts
14-Apr-18 09:30 37.365305 -121.925843 48 56ft 0kts
14-Apr-18 09:31 37.365305 -121.925843 48 56ft 0kts
14-Apr-18 09:32 37.365305 -121.925843 48 56ft 0kts
14-Apr-18 09:33 37.365305 -121.925843 48 56ft 0kts
14-Apr-18 09:34 37.365305 -121.925843 48 56ft 0kts
14-Apr-18 09:35 37.365305 -121.925843 48 56ft 0kts
14-Apr-18 09:36 37.365305 -121.925843 48 56ft 0kts
14-Apr-18 09:37 37.365305 -121.925843 48 56ft 0kts
14-Apr-18 09:38 37.365305 -121.925843 48 56ft 0kts
14-Apr-18 09:39 37.365305 -121.925843 48 56ft 0kts
14-Apr-18 09:40 37.365305 -121.925843 48 56ft 0kts
14-Apr-18 09:41 37.365305 -121.925843 48 56ft 0kts
14-Apr-18 09:42 37.365305 -121.925843 48 56ft 0kts
14-Apr-18 09:43 37.365305 -121.925843 48 56ft 0kts
14-Apr-18 09:44 37.365305 -121.925843 48 56ft 0kts
14-Apr-18 09:45 37.365305 -121.925843 48 56ft 0kts
14-Apr-18 09:46 37.364748 -121.926915 198 56ft 11kts
14-Apr-18 09:47 37.359891 -121.922002 138 56ft 38kts
14-Apr-18 09:48 37.354763 -121.916454 167 56ft 0kts
14-Apr-18 09:49 37.354763 -121.916454 167 56ft 0kts
14-Apr-18 09:50 37.354763 -121.916454 167 56ft 0kts
14-Apr-18 09:51 37.356443 -121.919841 319 56ft 80kts
14-Apr-18 09:52 37.392291 -121.958565 318 1592ft 220kts
14-Apr-18 09:53 37.449835 -121.961780 56 3580ft 259kts
14-Apr-18 09:54 37.424883 -121.894897 165 4996ft 262kts
14-Apr-18 09:55 37.371406 -121.877368 166 4993ft 261kts
14-Apr-18 09:56 37.322764 -121.862616 176 4984ft 261kts
14-Apr-18 09:57 37.286041 -121.922914 288 5987ft 270kts
14-Apr-18 09:58 37.348388 -121.951490 359 8633ft 285kts
14-Apr-18 09:59 37.397525 -121.952825 355 10448ft 288kts
14-Apr-18 10:00 37.476596 -121.957572 355 13255ft 295kts
14-Apr-18 10:01 37.555984 -121.966836 17 15779ft 313kts
14-Apr-18 10:02 37.606648 -121.927781 5 17324ft 316kts
14-Apr-18 10:03 37.691389 -121.893559 14 19550ft 332kts
14-Apr-18 10:04 37.779622 -121.853975 14 20991ft 355kts
14-Apr-18 10:05 37.879342 -121.809011 15 20948ft 413kts
14-Apr-18 10:06 37.990574 -121.758584 15 20980ft 437kts
14-Apr-18 10:07 38.104319 -121.706905 15 20977ft 437kts
14-Apr-18 10:08 38.217815 -121.655176 15 20974ft 437kts
14-Apr-18 10:09 38.331697 -121.603109 15 20984ft 437kts
14-Apr-18 10:10 38.444719 -121.549467 26 20972ft 442kts
14-Apr-18 10:11 38.532351 -121.438825 41 20993ft 450kts
14-Apr-18 10:12 38.614924 -121.333233 41 20990ft 450kts
14-Apr-18 10:13 38.700305 -121.223681 41 20986ft 450kts
14-Apr-18 10:14 38.781749 -121.118812 41 20989ft 450kts
14-Apr-18 10:15 38.868329 -121.007018 41 20994ft 450kts
14-Apr-18 10:16 38.954849 -120.894411 41 20988ft 455kts
14-Apr-18 10:17 39.043648 -120.779465 40 21048ft 443kts
14-Apr-18 10:18 39.124067 -120.674516 40 21053ft 406kts
14-Apr-18 10:19 39.202587 -120.571623 40 21046ft 405kts
14-Apr-18 10:20 39.280884 -120.468650 40 20770ft 410kts
14-Apr-18 10:21 39.359055 -120.365442 41 17847ft 397kts
14-Apr-18 10:22 39.428486 -120.268321 45 16123ft 356kts
14-Apr-18 10:23 39.496233 -120.171300 43 16046ft 369kts
14-Apr-18 10:24 39.563049 -120.076444 43 16004ft 370kts
14-Apr-18 10:25 39.632083 -119.979411 43 14388ft 364kts
14-Apr-18 10:26 39.698342 -119.888348 43 11770ft 343kts
14-Apr-18 10:27 39.759297 -119.801938 65 10060ft 317kts
14-Apr-18 10:28 39.735356 -119.725580 178 9882ft 219kts
14-Apr-18 10:29 39.675013 -119.725074 186 8019ft 208kts
14-Apr-18 10:30 39.625969 -119.751068 207 7337ft 177kts
14-Apr-18 10:31 39.580450 -119.769372 194 6614ft 154kts
14-Apr-18 10:32 39.536974 -119.768913 184 5406ft 162kts
14-Apr-18 10:33 39.497220 -119.769326 179 4422ft 28kts
14-Apr-18 10:34 39.493757 -119.768514 46 4422ft 0kts
14-Apr-18 10:35 39.495452 -119.767215 31 4422ft 27kts
14-Apr-18 10:36 39.500496 -119.764686 72 4422ft 0kts
14-Apr-18 10:37 39.500504 -119.764655 72 4422ft 0kts
14-Apr-18 10:38 39.500504 -119.764655 72 4422ft 0kts
14-Apr-18 10:39 39.500504 -119.764655 72 4422ft 0kts

Navigation Log

Ident Type
Flight plan parsing failed, navigation log unavailable